sensor_id;sensor_type;location;lat;lon;timestamp;pressure;altitude;pressure_sealevel;temperature;humidity
12987;BME280;58897;51.960;5.582;2023-05-24T00:01:58;102151.63;;;10.15;100.00
12987;BME280;58897;51.960;5.582;2023-05-24T00:04:25;102146.13;;;10.05;100.00
12987;BME280;58897;51.960;5.582;2023-05-24T00:06:55;102136.03;;;10.07;100.00
12987;BME280;58897;51.960;5.582;2023-05-24T00:09:23;102141.44;;;10.07;100.00
12987;BME280;58897;51.960;5.582;2023-05-24T00:11:50;102134.81;;;10.11;100.00
12987;BME280;58897;51.960;5.582;2023-05-24T00:14:16;102138.75;;;10.07;100.00
12987;BME280;58897;51.960;5.582;2023-05-24T00:16:43;102134.81;;;10.11;100.00
12987;BME280;58897;51.960;5.582;2023-05-24T00:19:12;102131.50;;;10.08;100.00
12987;BME280;58897;51.960;5.582;2023-05-24T00:21:44;102121.44;;;10.10;100.00
12987;BME280;58897;51.960;5.582;2023-05-24T00:24:11;102121.44;;;10.10;100.00
12987;BME280;58897;51.960;5.582;2023-05-24T00:26:38;102119.25;;;10.04;100.00
12987;BME280;58897;51.960;5.582;2023-05-24T00:29:04;102120.84;;;10.06;100.00
12987;BME280;58897;51.960;5.582;2023-05-24T00:31:31;102125.50;;;10.04;100.00
12987;BME280;58897;51.960;5.582;2023-05-24T00:33:58;102123.03;;;10.12;100.00
12987;BME280;58897;51.960;5.582;2023-05-24T00:36:24;102120.88;;;9.95;100.00
12987;BME280;58897;51.960;5.582;2023-05-24T00:38:51;102118.50;;;10.02;100.00
12987;BME280;58897;51.960;5.582;2023-05-24T00:41:19;102120.34;;;10.01;100.00
12987;BME280;58897;51.960;5.582;2023-05-24T00:43:45;102114.13;;;10.01;100.00
12987;BME280;58897;51.960;5.582;2023-05-24T00:46:20;102100.38;;;10.04;100.00
12987;BME280;58897;51.960;5.582;2023-05-24T00:48:50;102111.53;;;9.99;100.00
12987;BME280;58897;51.960;5.582;2023-05-24T00:51:17;102109.41;;;9.82;100.00
12987;BME280;58897;51.960;5.582;2023-05-24T00:53:45;102109.41;;;9.82;100.00
12987;BME280;58897;51.960;5.582;2023-05-24T00:56:13;102104.88;;;9.82;100.00
12987;BME280;58897;51.960;5.582;2023-05-24T00:58:40;102103.09;;;9.92;100.00
12987;BME280;58897;51.960;5.582;2023-05-24T01:01:07;102098.69;;;9.91;100.00
12987;BME280;58897;51.960;5.582;2023-05-24T01:03:34;102106.94;;;9.79;100.00
12987;BME280;58897;51.960;5.582;2023-05-24T01:06:03;102106.44;;;9.85;100.00
12987;BME280;58897;51.960;5.582;2023-05-24T01:11:42;102106.31;;;9.86;100.00
12987;BME280;58897;51.960;5.582;2023-05-24T01:17:05;102101.34;;;9.71;100.00
12987;BME280;58897;51.960;5.582;2023-05-24T01:25:38;102101.22;;;9.72;100.00
12987;BME280;58897;51.960;5.582;2023-05-24T01:27:58;102103.91;;;9.72;100.00
12987;BME280;58897;51.960;5.582;2023-05-24T01:30:26;102102.19;;;9.71;100.00
12987;BME280;58897;51.960;5.582;2023-05-24T01:32:54;102103.63;;;9.75;100.00
12987;BME280;58897;51.960;5.582;2023-05-24T01:35:20;102096.41;;;9.76;100.00
12987;BME280;58897;51.960;5.582;2023-05-24T01:37:47;102100.94;;;9.75;100.00
12987;BME280;58897;51.960;5.582;2023-05-24T01:40:14;102092.75;;;9.66;100.00
12987;BME280;58897;51.960;5.582;2023-05-24T01:48:01;102102.59;;;9.67;100.00
12987;BME280;58897;51.960;5.582;2023-05-24T01:51:05;102104.88;;;9.71;100.00
12987;BME280;58897;51.960;5.582;2023-05-24T01:53:35;102100.47;;;9.70;100.00
12987;BME280;58897;51.960;5.582;2023-05-24T01:56:05;102096.41;;;9.76;100.00
12987;BME280;58897;51.960;5.582;2023-05-24T01:58:32;102105.13;;;9.79;100.00
12987;BME280;58897;51.960;5.582;2023-05-24T02:01:00;102112.75;;;9.74;100.00
12987;BME280;58897;51.960;5.582;2023-05-24T02:03:27;102106.47;;;9.74;100.00
12987;BME280;58897;51.960;5.582;2023-05-24T02:05:54;102107.13;;;9.66;100.00
12987;BME280;58897;51.960;5.582;2023-05-24T02:08:21;102101.97;;;9.63;100.00
12987;BME280;58897;51.960;5.582;2023-05-24T02:10:48;102112.13;;;9.71;100.00
12987;BME280;58897;51.960;5.582;2023-05-24T02:13:14;102103.56;;;9.66;100.00
12987;BME280;58897;51.960;5.582;2023-05-24T02:15:43;102107.22;;;9.65;100.00
12987;BME280;58897;51.960;5.582;2023-05-24T02:18:10;102104.41;;;9.66;100.00
12987;BME280;58897;51.960;5.582;2023-05-24T02:20:36;102109.31;;;9.72;100.00
12987;BME280;58897;51.960;5.582;2023-05-24T02:23:03;102107.81;;;9.79;100.00
12987;BME280;58897;51.960;5.582;2023-05-24T02:25:30;102103.38;;;9.78;100.00
12987;BME280;58897;51.960;5.582;2023-05-24T02:27:59;102097.03;;;9.79;100.00
12987;BME280;58897;51.960;5.582;2023-05-24T02:30:26;102095.19;;;9.80;100.00
12987;BME280;58897;51.960;5.582;2023-05-24T02:32:53;102101.41;;;9.80;100.00
12987;BME280;58897;51.960;5.582;2023-05-24T02:35:20;102095.66;;;9.85;100.00
12987;BME280;58897;51.960;5.582;2023-05-24T02:37:46;102102.53;;;9.78;100.00
12987;BME280;58897;51.960;5.582;2023-05-24T02:40:13;102095.06;;;9.70;100.00
12987;BME280;58897;51.960;5.582;2023-05-24T02:42:39;102098.84;;;9.79;100.00
12987;BME280;58897;51.960;5.582;2023-05-24T02:45:06;102100.47;;;9.70;100.00
12987;BME280;58897;51.960;5.582;2023-05-24T02:47:33;102107.09;;;9.77;100.00
12987;BME280;58897;51.960;5.582;2023-05-24T02:49:59;102104.47;;;9.87;100.00
12987;BME280;58897;51.960;5.582;2023-05-24T02:52:26;102105.63;;;9.73;100.00
12987;BME280;58897;51.960;5.582;2023-05-24T02:54:52;102114.91;;;9.80;100.00
12987;BME280;58897;51.960;5.582;2023-05-24T02:57:19;102107.44;;;9.73;100.00
12987;BME280;58897;51.960;5.582;2023-05-24T02:59:46;102113.31;;;9.78;100.00
12987;BME280;58897;51.960;5.582;2023-05-24T03:02:12;102107.66;;;9.81;100.00
12987;BME280;58897;51.960;5.582;2023-05-24T03:04:39;102113.47;;;9.76;100.00
12987;BME280;58897;51.960;5.582;2023-05-24T03:07:06;102104.50;;;9.76;100.00
12987;BME280;58897;51.960;5.582;2023-05-24T03:09:32;102101.88;;;9.85;100.00
12987;BME280;58897;51.960;5.582;2023-05-24T03:11:59;102105.09;;;9.90;100.00
12987;BME280;58897;51.960;5.582;2023-05-24T03:14:26;102100.81;;;9.88;100.00
12987;BME280;58897;51.960;5.582;2023-05-24T03:16:52;102101.09;;;9.74;100.00
12987;BME280;58897;51.960;5.582;2023-05-24T03:19:19;102105.50;;;9.75;100.00
12987;BME280;58897;51.960;5.582;2023-05-24T03:21:45;102099.88;;;9.67;100.00
12987;BME280;58897;51.960;5.582;2023-05-24T03:24:12;102101.00;;;9.64;100.00
12987;BME280;58897;51.960;5.582;2023-05-24T03:26:39;102098.16;;;9.66;100.00
12987;BME280;58897;51.960;5.582;2023-05-24T03:29:06;102099.94;;;9.87;100.00
12987;BME280;58897;51.960;5.582;2023-05-24T03:31:32;102091.22;;;9.84;100.00
12987;BME280;58897;51.960;5.582;2023-05-24T03:33:59;102085.97;;;9.82;100.00
12987;BME280;58897;51.960;5.582;2023-05-24T03:36:25;102079.81;;;9.80;100.00
12987;BME280;58897;51.960;5.582;2023-05-24T03:38:53;102081.69;;;9.80;100.00
12987;BME280;58897;51.960;5.582;2023-05-24T03:41:20;102090.13;;;9.86;100.00
12987;BME280;58897;51.960;5.582;2023-05-24T03:43:47;102084.50;;;9.78;100.00
12987;BME280;58897;51.960;5.582;2023-05-24T03:46:14;102076.50;;;9.88;100.00
12987;BME280;58897;51.960;5.582;2023-05-24T03:48:40;102083.13;;;9.84;100.00
12987;BME280;58897;51.960;5.582;2023-05-24T03:51:07;102077.13;;;9.80;100.00
12987;BME280;58897;51.960;5.582;2023-05-24T03:53:34;102077.34;;;9.88;100.00
12987;BME280;58897;51.960;5.582;2023-05-24T03:56:01;102079.47;;;9.85;100.00
12987;BME280;58897;51.960;5.582;2023-05-24T03:58:27;102088.53;;;9.84;100.00
12987;BME280;58897;51.960;5.582;2023-05-24T04:00:54;102084.38;;;9.80;100.00
12987;BME280;58897;51.960;5.582;2023-05-24T04:03:20;102098.13;;;9.77;100.00
12987;BME280;58897;51.960;5.582;2023-05-24T04:05:47;102093.69;;;9.87;100.00
12987;BME280;58897;51.960;5.582;2023-05-24T04:08:14;102085.84;;;9.84;100.00
12987;BME280;58897;51.960;5.582;2023-05-24T04:10:41;102091.25;;;9.73;100.00
12987;BME280;58897;51.960;5.582;2023-05-24T04:13:08;102089.03;;;9.78;100.00
12987;BME280;58897;51.960;5.582;2023-05-24T04:15:35;102087.81;;;9.82;100.00
12987;BME280;58897;51.960;5.582;2023-05-24T04:18:03;102088.78;;;9.81;100.00
12987;BME280;58897;51.960;5.582;2023-05-24T04:20:30;102090.53;;;9.71;100.00
12987;BME280;58897;51.960;5.582;2023-05-24T04:22:57;102090.84;;;9.88;100.00
12987;BME280;58897;51.960;5.582;2023-05-24T04:25:24;102083.97;;;9.96;100.00
12987;BME280;58897;51.960;5.582;2023-05-24T04:27:52;102086.88;;;10.04;100.00
12987;BME280;58897;51.960;5.582;2023-05-24T04:30:18;102084.44;;;10.01;100.00
12987;BME280;58897;51.960;5.582;2023-05-24T04:32:46;102086.97;;;10.02;100.00
12987;BME280;58897;51.960;5.582;2023-05-24T04:35:14;102084.03;;;10.05;100.00
12987;BME280;58897;51.960;5.582;2023-05-24T04:37:42;102090.53;;;10.03;100.00
12987;BME280;58897;51.960;5.582;2023-05-24T04:40:10;102091.50;;;10.13;100.00
12987;BME280;58897;51.960;5.582;2023-05-24T04:42:36;102085.44;;;10.20;100.00
12987;BME280;58897;51.960;5.582;2023-05-24T04:45:04;102086.97;;;10.34;100.00
12987;BME280;58897;51.960;5.582;2023-05-24T04:47:31;102089.94;;;10.31;100.00
12987;BME280;58897;51.960;5.582;2023-05-24T04:49:57;102098.69;;;10.23;100.00
12987;BME280;58897;51.960;5.582;2023-05-24T04:52:24;102100.28;;;10.26;100.00
12987;BME280;58897;51.960;5.582;2023-05-24T04:54:50;102100.53;;;10.43;100.00
12987;BME280;58897;51.960;5.582;2023-05-24T04:57:17;102095.84;;;10.45;100.00
12987;BME280;58897;51.960;5.582;2023-05-24T04:59:43;102102.25;;;10.44;100.00
12987;BME280;58897;51.960;5.582;2023-05-24T05:02:10;102100.88;;;10.50;100.00
12987;BME280;58897;51.960;5.582;2023-05-24T05:04:37;102093.63;;;10.50;100.00
12987;BME280;58897;51.960;5.582;2023-05-24T05:07:03;102098.22;;;10.60;100.00
12987;BME280;58897;51.960;5.582;2023-05-24T05:09:30;102092.16;;;10.67;100.00
12987;BME280;58897;51.960;5.582;2023-05-24T05:11:56;102092.56;;;10.63;100.00
12987;BME280;58897;51.960;5.582;2023-05-24T05:14:23;102094.75;;;10.69;100.00
12987;BME280;58897;51.960;5.582;2023-05-24T05:16:50;102096.44;;;10.70;100.00
12987;BME280;58897;51.960;5.582;2023-05-24T05:19:16;102100.63;;;10.83;100.00
12987;BME280;58897;51.960;5.582;2023-05-24T05:21:43;102100.81;;;10.91;100.00
12987;BME280;58897;51.960;5.582;2023-05-24T05:24:09;102100.59;;;10.74;100.00
12987;BME280;58897;51.960;5.582;2023-05-24T05:26:36;102091.22;;;10.78;100.00
12987;BME280;58897;51.960;5.582;2023-05-24T05:29:02;102096.28;;;10.92;100.00
12987;BME280;58897;51.960;5.582;2023-05-24T05:31:29;102100.28;;;10.97;100.00
12987;BME280;58897;51.960;5.582;2023-05-24T05:33:56;102094.50;;;11.11;100.00
12987;BME280;58897;51.960;5.582;2023-05-24T05:36:23;102104.78;;;11.18;100.00
12987;BME280;58897;51.960;5.582;2023-05-24T05:38:49;102100.94;;;11.20;100.00
12987;BME280;58897;51.960;5.582;2023-05-24T05:41:16;102096.59;;;11.08;100.00
12987;BME280;58897;51.960;5.582;2023-05-24T05:43:43;102098.75;;;11.04;100.00
12987;BME280;58897;51.960;5.582;2023-05-24T05:46:09;102098.78;;;11.14;100.00
12987;BME280;58897;51.960;5.582;2023-05-24T05:48:36;102100.41;;;11.26;100.00
12987;BME280;58897;51.960;5.582;2023-05-24T05:51:03;102095.28;;;11.33;100.00
12987;BME280;58897;51.960;5.582;2023-05-24T05:53:32;102100.69;;;11.33;100.00
12987;BME280;58897;51.960;5.582;2023-05-24T05:55:59;102108.38;;;11.28;100.00
12987;BME280;58897;51.960;5.582;2023-05-24T05:58:25;102111.53;;;11.33;100.00
12987;BME280;58897;51.960;5.582;2023-05-24T06:00:52;102104.72;;;11.38;100.00
12987;BME280;58897;51.960;5.582;2023-05-24T06:03:18;102101.91;;;11.59;100.00
12987;BME280;58897;51.960;5.582;2023-05-24T06:05:45;102104.38;;;11.81;100.00
12987;BME280;58897;51.960;5.582;2023-05-24T06:08:12;102101.56;;;11.83;100.00
12987;BME280;58897;51.960;5.582;2023-05-24T06:10:38;102097.50;;;11.67;100.00
12987;BME280;58897;51.960;5.582;2023-05-24T06:13:05;102094.41;;;11.72;100.00
12987;BME280;58897;51.960;5.582;2023-05-24T06:15:32;102105.66;;;11.87;100.00
12987;BME280;58897;51.960;5.582;2023-05-24T06:18:00;102103.97;;;12.05;100.00
12987;BME280;58897;51.960;5.582;2023-05-24T06:20:27;102108.97;;;12.09;100.00
12987;BME280;58897;51.960;5.582;2023-05-24T06:22:54;102098.97;;;12.38;100.00
12987;BME280;58897;51.960;5.582;2023-05-24T06:25:22;102109.78;;;12.58;100.00
12987;BME280;58897;51.960;5.582;2023-05-24T06:27:49;102104.28;;;12.86;100.00
12987;BME280;58897;51.960;5.582;2023-05-24T06:30:17;102101.00;;;13.29;100.00
12987;BME280;58897;51.960;5.582;2023-05-24T06:32:44;102102.31;;;13.70;100.00
12987;BME280;58897;51.960;5.582;2023-05-24T06:35:10;102098.63;;;14.06;100.00
12987;BME280;58897;51.960;5.582;2023-05-24T06:37:37;102102.19;;;14.24;100.00
12987;BME280;58897;51.960;5.582;2023-05-24T06:40:07;102107.81;;;14.66;100.00
12987;BME280;58897;51.960;5.582;2023-05-24T06:42:38;102111.03;;;14.88;100.00
12987;BME280;58897;51.960;5.582;2023-05-24T06:45:05;102113.31;;;15.00;100.00
12987;BME280;58897;51.960;5.582;2023-05-24T06:47:31;102118.88;;;14.91;100.00
12987;BME280;58897;51.960;5.582;2023-05-24T06:49:58;102117.09;;;14.81;100.00
12987;BME280;58897;51.960;5.582;2023-05-24T06:52:26;102117.75;;;15.01;100.00
12987;BME280;58897;51.960;5.582;2023-05-24T06:54:53;102119.66;;;15.42;100.00
12987;BME280;58897;51.960;5.582;2023-05-24T06:57:20;102115.06;;;14.83;100.00
12987;BME280;58897;51.960;5.582;2023-05-24T06:59:46;102118.66;;;14.41;100.00
12987;BME280;58897;51.960;5.582;2023-05-24T07:02:13;102128.47;;;14.34;100.00
12987;BME280;58897;51.960;5.582;2023-05-24T07:04:39;102130.84;;;14.19;100.00
12987;BME280;58897;51.960;5.582;2023-05-24T07:07:07;102131.06;;;14.08;100.00
12987;BME280;58897;51.960;5.582;2023-05-24T07:09:34;102131.91;;;14.08;100.00
12987;BME280;58897;51.960;5.582;2023-05-24T07:12:01;102124.31;;;14.12;100.00
12987;BME280;58897;51.960;5.582;2023-05-24T07:14:27;102133.34;;;14.12;100.00
12987;BME280;58897;51.960;5.582;2023-05-24T07:16:54;102132.34;;;14.74;100.00
12987;BME280;58897;51.960;5.582;2023-05-24T07:19:23;102129.13;;;15.05;100.00
12987;BME280;58897;51.960;5.582;2023-05-24T07:21:55;102123.31;;;15.67;100.00
12987;BME280;58897;51.960;5.582;2023-05-24T07:24:22;102116.00;;;16.58;100.00
12987;BME280;58897;51.960;5.582;2023-05-24T07:26:50;102121.53;;;16.00;100.00
12987;BME280;58897;51.960;5.582;2023-05-24T07:29:17;102125.78;;;15.44;100.00
12987;BME280;58897;51.960;5.582;2023-05-24T07:31:43;102126.91;;;15.00;100.00
12987;BME280;58897;51.960;5.582;2023-05-24T07:34:10;102126.50;;;14.44;100.00
12987;BME280;58897;51.960;5.582;2023-05-24T07:36:36;102121.59;;;15.24;100.00
12987;BME280;58897;51.960;5.582;2023-05-24T07:39:03;102129.56;;;16.18;100.00
12987;BME280;58897;51.960;5.582;2023-05-24T07:41:31;102123.50;;;15.32;100.00
12987;BME280;58897;51.960;5.582;2023-05-24T07:43:58;102119.81;;;15.99;100.00
12987;BME280;58897;51.960;5.582;2023-05-24T07:46:25;102123.44;;;16.80;100.00
12987;BME280;58897;51.960;5.582;2023-05-24T07:48:52;102115.69;;;17.16;100.00
12987;BME280;58897;51.960;5.582;2023-05-24T07:51:18;102113.06;;;18.23;100.00
12987;BME280;58897;51.960;5.582;2023-05-24T07:53:46;102111.66;;;18.72;100.00
12987;BME280;58897;51.960;5.582;2023-05-24T07:56:12;102109.28;;;18.09;100.00
12987;BME280;58897;51.960;5.582;2023-05-24T07:58:39;102119.59;;;17.68;100.00
12987;BME280;58897;51.960;5.582;2023-05-24T08:01:06;102113.31;;;18.36;100.00
12987;BME280;58897;51.960;5.582;2023-05-24T08:03:33;102108.78;;;18.06;100.00
12987;BME280;58897;51.960;5.582;2023-05-24T08:06:00;102122.34;;;17.13;100.00
12987;BME280;58897;51.960;5.582;2023-05-24T08:08:26;102123.66;;;16.54;100.00
12987;BME280;58897;51.960;5.582;2023-05-24T08:10:53;102119.50;;;16.10;100.00
12987;BME280;58897;51.960;5.582;2023-05-24T08:13:19;102106.53;;;18.09;100.00
12987;BME280;58897;51.960;5.582;2023-05-24T08:15:46;102114.34;;;19.24;100.00
12987;BME280;58897;51.960;5.582;2023-05-24T08:18:12;102104.63;;;19.51;100.00
12987;BME280;58897;51.960;5.582;2023-05-24T08:20:39;102103.88;;;20.14;100.00
12987;BME280;58897;51.960;5.582;2023-05-24T08:23:06;102108.66;;;18.22;100.00
12987;BME280;58897;51.960;5.582;2023-05-24T08:25:32;102113.41;;;17.36;100.00
12987;BME280;58897;51.960;5.582;2023-05-24T08:27:59;102110.44;;;16.98;100.00
12987;BME280;58897;51.960;5.582;2023-05-24T08:30:26;102113.94;;;16.60;100.00
12987;BME280;58897;51.960;5.582;2023-05-24T08:32:53;102111.50;;;16.33;100.00
12987;BME280;58897;51.960;5.582;2023-05-24T08:35:19;102111.16;;;16.28;100.00
12987;BME280;58897;51.960;5.582;2023-05-24T08:37:48;102112.88;;;16.29;100.00
12987;BME280;58897;51.960;5.582;2023-05-24T08:40:15;102105.59;;;17.94;100.00
12987;BME280;58897;51.960;5.582;2023-05-24T08:42:43;102098.28;;;19.50;100.00
12987;BME280;58897;51.960;5.582;2023-05-24T08:45:11;102095.03;;;19.97;100.00
12987;BME280;58897;51.960;5.582;2023-05-24T08:47:39;102095.22;;;20.80;100.00
12987;BME280;58897;51.960;5.582;2023-05-24T08:50:06;102091.38;;;20.26;95.32
12987;BME280;58897;51.960;5.582;2023-05-24T08:52:34;102089.34;;;20.62;96.18
12987;BME280;58897;51.960;5.582;2023-05-24T08:55:03;102090.72;;;21.01;96.73
12987;BME280;58897;51.960;5.582;2023-05-24T08:57:31;102089.38;;;19.99;97.53
12987;BME280;58897;51.960;5.582;2023-05-24T09:00:00;102080.59;;;20.46;94.63
12987;BME280;58897;51.960;5.582;2023-05-24T09:02:27;102089.56;;;21.16;91.12
12987;BME280;58897;51.960;5.582;2023-05-24T09:04:55;102090.44;;;19.33;100.00
12987;BME280;58897;51.960;5.582;2023-05-24T09:07:23;102093.06;;;18.68;100.00
12987;BME280;58897;51.960;5.582;2023-05-24T09:09:59;102093.69;;;17.87;100.00
12987;BME280;58897;51.960;5.582;2023-05-24T09:12:30;102093.69;;;18.10;100.00
12987;BME280;58897;51.960;5.582;2023-05-24T09:15:05;102091.09;;;17.63;100.00
12987;BME280;58897;51.960;5.582;2023-05-24T09:17:33;102096.28;;;17.42;100.00
12987;BME280;58897;51.960;5.582;2023-05-24T09:20:00;102100.97;;;17.72;100.00
12987;BME280;58897;51.960;5.582;2023-05-24T09:22:27;102097.34;;;17.79;100.00
12987;BME280;58897;51.960;5.582;2023-05-24T09:25:05;102103.84;;;17.32;100.00
12987;BME280;58897;51.960;5.582;2023-05-24T09:27:34;102106.59;;;17.23;100.00
12987;BME280;58897;51.960;5.582;2023-05-24T09:30:02;102110.19;;;17.24;100.00
12987;BME280;58897;51.960;5.582;2023-05-24T09:32:30;102105.81;;;17.07;100.00
12987;BME280;58897;51.960;5.582;2023-05-24T09:34:57;102107.19;;;17.03;100.00
12987;BME280;58897;51.960;5.582;2023-05-24T09:37:25;102115.88;;;17.06;100.00
12987;BME280;58897;51.960;5.582;2023-05-24T09:39:58;102112.84;;;17.01;100.00
12987;BME280;58897;51.960;5.582;2023-05-24T09:42:25;102111.94;;;17.17;100.00
12987;BME280;58897;51.960;5.582;2023-05-24T09:45:06;102104.16;;;18.06;100.00
12987;BME280;58897;51.960;5.582;2023-05-24T09:47:36;102109.44;;;17.46;100.00
12987;BME280;58897;51.960;5.582;2023-05-24T09:50:04;102109.81;;;17.35;100.00
12987;BME280;58897;51.960;5.582;2023-05-24T09:52:35;102119.56;;;17.29;100.00
12987;BME280;58897;51.960;5.582;2023-05-24T09:57:59;102114.16;;;17.13;100.00
12987;BME280;58897;51.960;5.582;2023-05-24T10:00:28;102113.50;;;17.03;100.00
12987;BME280;58897;51.960;5.582;2023-05-24T10:03:02;102119.31;;;17.00;100.00
12987;BME280;58897;51.960;5.582;2023-05-24T10:05:30;102118.00;;;16.72;100.00
12987;BME280;58897;51.960;5.582;2023-05-24T10:07:57;102118.66;;;16.18;100.00
12987;BME280;58897;51.960;5.582;2023-05-24T10:10:28;102115.09;;;16.25;100.00
12987;BME280;58897;51.960;5.582;2023-05-24T10:12:55;102111.31;;;16.02;100.00
12987;BME280;58897;51.960;5.582;2023-05-24T10:15:24;102119.00;;;16.23;100.00
12987;BME280;58897;51.960;5.582;2023-05-24T10:17:55;102119.66;;;16.08;100.00
12987;BME280;58897;51.960;5.582;2023-05-24T10:20:23;102125.66;;;16.20;100.00
12987;BME280;58897;51.960;5.582;2023-05-24T10:22:58;102123.09;;;16.11;100.00
12987;BME280;58897;51.960;5.582;2023-05-24T10:25:27;102128.06;;;16.31;100.00
12987;BME280;58897;51.960;5.582;2023-05-24T10:27:57;102121.41;;;16.50;100.00
12987;BME280;58897;51.960;5.582;2023-05-24T10:30:33;102118.34;;;16.45;100.00
12987;BME280;58897;51.960;5.582;2023-05-24T10:33:04;102111.59;;;17.20;100.00
12987;BME280;58897;51.960;5.582;2023-05-24T10:35:33;102109.31;;;17.70;100.00
12987;BME280;58897;51.960;5.582;2023-05-24T10:38:06;102104.88;;;17.77;100.00
12987;BME280;58897;51.960;5.582;2023-05-24T10:40:33;102104.53;;;18.03;100.00
12987;BME280;58897;51.960;5.582;2023-05-24T10:43:04;102110.28;;;17.85;100.00
12987;BME280;58897;51.960;5.582;2023-05-24T10:45:38;102105.78;;;17.93;100.00
12987;BME280;58897;51.960;5.582;2023-05-24T10:50:39;102114.97;;;17.69;100.00
12987;BME280;58897;51.960;5.582;2023-05-24T10:53:37;102108.53;;;17.62;100.00
12987;BME280;58897;51.960;5.582;2023-05-24T10:56:07;102104.78;;;17.55;100.00
12987;BME280;58897;51.960;5.582;2023-05-24T10:58:57;102096.34;;;17.72;100.00
12987;BME280;58897;51.960;5.582;2023-05-24T11:01:31;102098.78;;;17.67;100.00
12987;BME280;58897;51.960;5.582;2023-05-24T11:04:15;102107.72;;;17.84;100.00
12987;BME280;58897;51.960;5.582;2023-05-24T11:06:44;102108.69;;;17.60;100.00
12987;BME280;58897;51.960;5.582;2023-05-24T11:09:14;102097.53;;;17.78;100.00
12987;BME280;58897;51.960;5.582;2023-05-24T11:11:43;102102.91;;;17.86;100.00
12987;BME280;58897;51.960;5.582;2023-05-24T11:14:12;102098.66;;;17.83;100.00
12987;BME280;58897;51.960;5.582;2023-05-24T11:16:39;102099.56;;;18.44;100.00
12987;BME280;58897;51.960;5.582;2023-05-24T11:19:17;102088.66;;;19.54;94.43
12987;BME280;58897;51.960;5.582;2023-05-24T11:21:48;102086.31;;;20.08;96.98
12987;BME280;58897;51.960;5.582;2023-05-24T11:24:16;102091.28;;;19.62;99.19
12987;BME280;58897;51.960;5.582;2023-05-24T11:26:44;102095.16;;;19.53;97.65
12987;BME280;58897;51.960;5.582;2023-05-24T11:29:14;102093.09;;;19.91;99.39
12987;BME280;58897;51.960;5.582;2023-05-24T11:31:50;102093.63;;;20.01;97.33
12987;BME280;58897;51.960;5.582;2023-05-24T11:34:19;102085.16;;;19.82;94.08
12987;BME280;58897;51.960;5.582;2023-05-24T11:36:46;102093.72;;;19.72;97.34
12987;BME280;58897;51.960;5.582;2023-05-24T11:39:13;102088.16;;;19.65;97.09
12987;BME280;58897;51.960;5.582;2023-05-24T11:41:41;102089.81;;;19.16;95.75
12987;BME280;58897;51.960;5.582;2023-05-24T11:44:09;102094.78;;;19.27;97.07
12987;BME280;58897;51.960;5.582;2023-05-24T11:46:41;102092.06;;;19.13;97.43
12987;BME280;58897;51.960;5.582;2023-05-24T11:49:12;102093.91;;;19.70;99.43
12987;BME280;58897;51.960;5.582;2023-05-24T11:51:39;102089.00;;;19.66;97.19
12987;BME280;58897;51.960;5.582;2023-05-24T11:54:06;102080.66;;;19.38;99.09
12987;BME280;58897;51.960;5.582;2023-05-24T11:56:33;102085.16;;;19.60;98.98
12987;BME280;58897;51.960;5.582;2023-05-24T11:59:15;102084.88;;;19.26;95.31
12987;BME280;58897;51.960;5.582;2023-05-24T12:01:43;102089.84;;;19.66;99.11
12987;BME280;58897;51.960;5.582;2023-05-24T12:04:10;102088.66;;;19.40;100.00
12987;BME280;58897;51.960;5.582;2023-05-24T12:06:38;102091.88;;;19.14;100.00
12987;BME280;58897;51.960;5.582;2023-05-24T12:09:06;102090.56;;;19.39;99.71
12987;BME280;58897;51.960;5.582;2023-05-24T12:11:37;102094.16;;;19.10;100.00
12987;BME280;58897;51.960;5.582;2023-05-24T12:14:05;102085.34;;;19.30;100.00
12987;BME280;58897;51.960;5.582;2023-05-24T12:16:31;102088.19;;;18.92;100.00
12987;BME280;58897;51.960;5.582;2023-05-24T12:19:00;102083.84;;;18.83;100.00
12987;BME280;58897;51.960;5.582;2023-05-24T12:21:40;102082.97;;;19.27;100.00
12987;BME280;58897;51.960;5.582;2023-05-24T12:24:11;102083.09;;;19.19;100.00
12987;BME280;58897;51.960;5.582;2023-05-24T12:26:42;102084.22;;;19.09;98.90
12987;BME280;58897;51.960;5.582;2023-05-24T12:29:10;102081.69;;;19.08;100.00
12987;BME280;58897;51.960;5.582;2023-05-24T12:31:41;102080.50;;;19.61;100.00
12987;BME280;58897;51.960;5.582;2023-05-24T12:34:12;102077.41;;;19.20;100.00
12987;BME280;58897;51.960;5.582;2023-05-24T12:36:39;102078.44;;;19.48;98.85
12987;BME280;58897;51.960;5.582;2023-05-24T12:39:26;102074.88;;;19.04;99.63
12987;BME280;58897;51.960;5.582;2023-05-24T12:42:03;102079.69;;;19.31;100.00
12987;BME280;58897;51.960;5.582;2023-05-24T12:44:36;102084.47;;;19.58;100.00
12987;BME280;58897;51.960;5.582;2023-05-24T12:47:05;102079.69;;;19.82;98.93
12987;BME280;58897;51.960;5.582;2023-05-24T12:49:33;102075.44;;;19.14;100.00
12987;BME280;58897;51.960;5.582;2023-05-24T12:52:00;102077.97;;;18.86;100.00
12987;BME280;58897;51.960;5.582;2023-05-24T12:54:29;102073.91;;;18.82;100.00
12987;BME280;58897;51.960;5.582;2023-05-24T12:56:56;102076.84;;;18.95;100.00
12987;BME280;58897;51.960;5.582;2023-05-24T12:59:26;102072.97;;;19.19;97.54
12987;BME280;58897;51.960;5.582;2023-05-24T13:01:54;102078.66;;;19.03;100.00
12987;BME280;58897;51.960;5.582;2023-05-24T13:04:21;102072.78;;;18.91;100.00
12987;BME280;58897;51.960;5.582;2023-05-24T13:06:49;102076.22;;;19.08;100.00
12987;BME280;58897;51.960;5.582;2023-05-24T13:09:16;102070.50;;;19.53;100.00
12987;BME280;58897;51.960;5.582;2023-05-24T13:11:47;102070.22;;;19.84;98.37